sensor_id;sensor_type;location;lat;lon;timestamp;P1;durP1;ratioP1;P2;durP2;ratioP2
912;SDS011;443;51.448;7.028;2023-02-05T00:00:59;17.57;;;10.60;;
912;SDS011;443;51.448;7.028;2023-02-05T00:03:25;15.33;;;8.67;;
912;SDS011;443;51.448;7.028;2023-02-05T00:05:54;16.83;;;10.00;;
912;SDS011;443;51.448;7.028;2023-02-05T00:08:20;20.50;;;9.33;;
912;SDS011;443;51.448;7.028;2023-02-05T00:10:50;16.23;;;8.37;;
912;SDS011;443;51.448;7.028;2023-02-05T00:13:17;13.90;;;10.30;;
912;SDS011;443;51.448;7.028;2023-02-05T00:15:44;18.47;;;10.80;;
912;SDS011;443;51.448;7.028;2023-02-05T00:18:11;17.53;;;9.67;;
912;SDS011;443;51.448;7.028;2023-02-05T00:20:38;10.93;;;7.40;;
912;SDS011;443;51.448;7.028;2023-02-05T00:23:06;19.27;;;9.53;;
912;SDS011;443;51.448;7.028;2023-02-05T00:25:33;13.87;;;9.63;;
912;SDS011;443;51.448;7.028;2023-02-05T00:28:00;15.57;;;8.93;;
912;SDS011;443;51.448;7.028;2023-02-05T00:30:26;14.37;;;7.93;;
912;SDS011;443;51.448;7.028;2023-02-05T00:32:53;13.13;;;8.73;;
912;SDS011;443;51.448;7.028;2023-02-05T00:35:20;17.83;;;7.63;;
912;SDS011;443;51.448;7.028;2023-02-05T00:37:47;14.93;;;7.53;;
912;SDS011;443;51.448;7.028;2023-02-05T00:40:15;18.07;;;7.93;;
912;SDS011;443;51.448;7.028;2023-02-05T00:42:42;20.00;;;7.30;;
912;SDS011;443;51.448;7.028;2023-02-05T00:45:09;19.90;;;5.50;;
912;SDS011;443;51.448;7.028;2023-02-05T00:47:36;11.10;;;5.90;;
912;SDS011;443;51.448;7.028;2023-02-05T00:50:03;12.67;;;4.97;;
912;SDS011;443;51.448;7.028;2023-02-05T00:52:31;21.30;;;8.00;;
912;SDS011;443;51.448;7.028;2023-02-05T00:54:57;9.20;;;4.20;;
912;SDS011;443;51.448;7.028;2023-02-05T00:57:25;12.93;;;4.97;;
912;SDS011;443;51.448;7.028;2023-02-05T00:59:52;17.97;;;6.47;;
912;SDS011;443;51.448;7.028;2023-02-05T01:02:19;11.23;;;7.07;;
912;SDS011;443;51.448;7.028;2023-02-05T01:04:48;25.00;;;7.00;;
912;SDS011;443;51.448;7.028;2023-02-05T01:07:15;17.63;;;6.13;;
912;SDS011;443;51.448;7.028;2023-02-05T01:09:42;16.83;;;5.83;;
912;SDS011;443;51.448;7.028;2023-02-05T01:12:09;22.37;;;7.07;;
912;SDS011;443;51.448;7.028;2023-02-05T01:14:37;14.10;;;6.20;;
912;SDS011;443;51.448;7.028;2023-02-05T01:17:04;15.70;;;6.70;;
912;SDS011;443;51.448;7.028;2023-02-05T01:19:31;15.87;;;6.60;;
912;SDS011;443;51.448;7.028;2023-02-05T01:21:59;17.87;;;7.00;;
912;SDS011;443;51.448;7.028;2023-02-05T01:24:26;17.30;;;7.43;;
912;SDS011;443;51.448;7.028;2023-02-05T01:26:52;13.23;;;5.37;;
912;SDS011;443;51.448;7.028;2023-02-05T01:29:20;15.53;;;7.30;;
912;SDS011;443;51.448;7.028;2023-02-05T01:31:49;14.40;;;6.23;;
912;SDS011;443;51.448;7.028;2023-02-05T01:34:16;16.37;;;8.00;;
912;SDS011;443;51.448;7.028;2023-02-05T01:36:43;15.90;;;6.40;;
912;SDS011;443;51.448;7.028;2023-02-05T01:39:09;10.60;;;6.37;;
912;SDS011;443;51.448;7.028;2023-02-05T01:41:36;22.30;;;7.70;;
912;SDS011;443;51.448;7.028;2023-02-05T01:44:07;23.50;;;6.70;;
912;SDS011;443;51.448;7.028;2023-02-05T01:46:35;16.73;;;6.37;;
912;SDS011;443;51.448;7.028;2023-02-05T01:49:04;17.83;;;5.77;;
912;SDS011;443;51.448;7.028;2023-02-05T01:51:32;11.83;;;5.97;;
912;SDS011;443;51.448;7.028;2023-02-05T01:54:02;15.20;;;6.27;;
912;SDS011;443;51.448;7.028;2023-02-05T01:56:30;8.60;;;6.50;;
912;SDS011;443;51.448;7.028;2023-02-05T01:59:02;15.90;;;6.73;;
912;SDS011;443;51.448;7.028;2023-02-05T02:01:32;16.73;;;5.90;;
912;SDS011;443;51.448;7.028;2023-02-05T02:04:00;16.87;;;5.87;;
912;SDS011;443;51.448;7.028;2023-02-05T02:06:30;15.43;;;6.23;;
912;SDS011;443;51.448;7.028;2023-02-05T02:08:58;10.73;;;5.50;;
912;SDS011;443;51.448;7.028;2023-02-05T02:11:26;12.37;;;5.60;;
912;SDS011;443;51.448;7.028;2023-02-05T02:13:56;13.00;;;5.83;;
912;SDS011;443;51.448;7.028;2023-02-05T02:16:26;24.73;;;8.80;;
912;SDS011;443;51.448;7.028;2023-02-05T02:18:54;15.50;;;6.80;;
912;SDS011;443;51.448;7.028;2023-02-05T02:21:28;21.90;;;7.90;;
912;SDS011;443;51.448;7.028;2023-02-05T02:24:33;8.73;;;6.03;;
912;SDS011;443;51.448;7.028;2023-02-05T02:27:15;12.40;;;7.13;;
912;SDS011;443;51.448;7.028;2023-02-05T02:30:00;15.23;;;7.00;;
912;SDS011;443;51.448;7.028;2023-02-05T02:32:35;26.27;;;7.50;;
912;SDS011;443;51.448;7.028;2023-02-05T02:35:05;22.00;;;8.23;;
912;SDS011;443;51.448;7.028;2023-02-05T02:37:39;16.27;;;6.43;;
912;SDS011;443;51.448;7.028;2023-02-05T02:40:10;15.23;;;6.80;;
912;SDS011;443;51.448;7.028;2023-02-05T02:42:45;14.37;;;6.90;;
912;SDS011;443;51.448;7.028;2023-02-05T02:45:16;14.50;;;7.13;;
912;SDS011;443;51.448;7.028;2023-02-05T02:47:48;11.23;;;6.40;;
912;SDS011;443;51.448;7.028;2023-02-05T02:50:19;20.07;;;7.37;;
912;SDS011;443;51.448;7.028;2023-02-05T02:52:50;15.13;;;7.27;;
912;SDS011;443;51.448;7.028;2023-02-05T02:55:19;17.50;;;6.63;;
912;SDS011;443;51.448;7.028;2023-02-05T02:57:49;12.43;;;7.23;;
912;SDS011;443;51.448;7.028;2023-02-05T03:00:19;14.63;;;7.30;;
912;SDS011;443;51.448;7.028;2023-02-05T03:02:47;19.73;;;7.37;;
912;SDS011;443;51.448;7.028;2023-02-05T03:05:18;19.90;;;7.83;;
912;SDS011;443;51.448;7.028;2023-02-05T03:07:48;14.60;;;7.90;;
912;SDS011;443;51.448;7.028;2023-02-05T03:10:18;18.83;;;8.13;;
912;SDS011;443;51.448;7.028;2023-02-05T03:12:53;11.73;;;6.90;;
912;SDS011;443;51.448;7.028;2023-02-05T03:15:20;14.90;;;8.17;;
912;SDS011;443;51.448;7.028;2023-02-05T03:17:47;19.33;;;8.37;;
912;SDS011;443;51.448;7.028;2023-02-05T03:20:18;23.53;;;8.03;;
912;SDS011;443;51.448;7.028;2023-02-05T03:22:47;12.87;;;7.03;;
912;SDS011;443;51.448;7.028;2023-02-05T03:25:15;11.33;;;6.80;;
912;SDS011;443;51.448;7.028;2023-02-05T03:27:44;19.93;;;7.50;;
912;SDS011;443;51.448;7.028;2023-02-05T03:30:12;21.37;;;10.00;;
912;SDS011;443;51.448;7.028;2023-02-05T03:32:42;14.53;;;7.40;;
912;SDS011;443;51.448;7.028;2023-02-05T03:35:22;10.43;;;6.90;;
912;SDS011;443;51.448;7.028;2023-02-05T03:37:59;18.90;;;7.17;;
912;SDS011;443;51.448;7.028;2023-02-05T03:40:36;14.30;;;8.93;;
912;SDS011;443;51.448;7.028;2023-02-05T03:43:10;16.27;;;8.53;;
912;SDS011;443;51.448;7.028;2023-02-05T03:45:44;15.10;;;8.47;;
912;SDS011;443;51.448;7.028;2023-02-05T03:48:24;25.43;;;9.17;;
912;SDS011;443;51.448;7.028;2023-02-05T03:51:05;17.90;;;8.43;;
912;SDS011;443;51.448;7.028;2023-02-05T03:53:45;16.73;;;8.60;;
912;SDS011;443;51.448;7.028;2023-02-05T03:56:24;14.93;;;8.67;;
912;SDS011;443;51.448;7.028;2023-02-05T03:58:54;14.60;;;7.93;;
912;SDS011;443;51.448;7.028;2023-02-05T04:01:24;18.90;;;9.57;;
912;SDS011;443;51.448;7.028;2023-02-05T04:03:51;21.07;;;8.60;;
912;SDS011;443;51.448;7.028;2023-02-05T04:06:18;16.00;;;9.43;;
912;SDS011;443;51.448;7.028;2023-02-05T04:08:45;13.53;;;9.30;;
912;SDS011;443;51.448;7.028;2023-02-05T04:11:12;17.13;;;9.30;;
912;SDS011;443;51.448;7.028;2023-02-05T04:13:39;29.80;;;13.70;;
912;SDS011;443;51.448;7.028;2023-02-05T04:16:06;19.43;;;11.70;;
912;SDS011;443;51.448;7.028;2023-02-05T04:18:34;21.70;;;11.17;;
912;SDS011;443;51.448;7.028;2023-02-05T04:21:01;25.27;;;11.67;;
912;SDS011;443;51.448;7.028;2023-02-05T04:23:28;23.83;;;12.80;;
912;SDS011;443;51.448;7.028;2023-02-05T04:25:55;37.47;;;12.57;;
912;SDS011;443;51.448;7.028;2023-02-05T04:28:21;25.63;;;13.40;;
912;SDS011;443;51.448;7.028;2023-02-05T04:30:48;30.17;;;12.37;;
912;SDS011;443;51.448;7.028;2023-02-05T04:33:15;24.50;;;15.50;;
912;SDS011;443;51.448;7.028;2023-02-05T04:35:44;17.00;;;11.10;;
912;SDS011;443;51.448;7.028;2023-02-05T04:38:11;16.97;;;11.43;;
912;SDS011;443;51.448;7.028;2023-02-05T04:40:38;27.90;;;11.20;;
912;SDS011;443;51.448;7.028;2023-02-05T04:43:04;15.20;;;10.23;;
912;SDS011;443;51.448;7.028;2023-02-05T04:45:31;18.40;;;10.00;;
912;SDS011;443;51.448;7.028;2023-02-05T04:47:58;16.37;;;10.30;;
912;SDS011;443;51.448;7.028;2023-02-05T04:50:26;16.87;;;9.73;;
912;SDS011;443;51.448;7.028;2023-02-05T04:52:54;16.43;;;9.13;;
912;SDS011;443;51.448;7.028;2023-02-05T04:55:21;15.93;;;8.43;;
912;SDS011;443;51.448;7.028;2023-02-05T04:57:48;17.47;;;10.33;;
912;SDS011;443;51.448;7.028;2023-02-05T05:00:15;21.47;;;9.20;;
912;SDS011;443;51.448;7.028;2023-02-05T05:02:42;16.70;;;10.60;;
912;SDS011;443;51.448;7.028;2023-02-05T05:05:08;17.33;;;9.63;;
912;SDS011;443;51.448;7.028;2023-02-05T05:07:36;19.23;;;9.50;;
912;SDS011;443;51.448;7.028;2023-02-05T05:10:04;22.90;;;11.43;;
912;SDS011;443;51.448;7.028;2023-02-05T05:12:32;26.87;;;13.87;;
912;SDS011;443;51.448;7.028;2023-02-05T05:14:59;18.77;;;14.37;;
912;SDS011;443;51.448;7.028;2023-02-05T05:17:26;24.40;;;15.73;;
912;SDS011;443;51.448;7.028;2023-02-05T05:19:53;22.90;;;13.97;;
912;SDS011;443;51.448;7.028;2023-02-05T05:22:19;28.10;;;14.60;;
912;SDS011;443;51.448;7.028;2023-02-05T05:24:46;22.93;;;15.80;;
912;SDS011;443;51.448;7.028;2023-02-05T05:27:14;19.70;;;14.00;;
912;SDS011;443;51.448;7.028;2023-02-05T05:29:42;22.60;;;13.97;;
912;SDS011;443;51.448;7.028;2023-02-05T05:32:10;30.37;;;15.03;;
912;SDS011;443;51.448;7.028;2023-02-05T05:34:37;23.83;;;14.10;;
912;SDS011;443;51.448;7.028;2023-02-05T05:37:04;30.50;;;15.50;;
912;SDS011;443;51.448;7.028;2023-02-05T05:39:31;25.43;;;14.67;;
912;SDS011;443;51.448;7.028;2023-02-05T05:42:16;25.10;;;13.83;;
912;SDS011;443;51.448;7.028;2023-02-05T05:45:12;23.20;;;13.97;;
912;SDS011;443;51.448;7.028;2023-02-05T05:47:39;21.93;;;14.27;;
912;SDS011;443;51.448;7.028;2023-02-05T05:50:06;24.00;;;13.27;;
912;SDS011;443;51.448;7.028;2023-02-05T05:52:33;30.40;;;17.10;;
912;SDS011;443;51.448;7.028;2023-02-05T05:55:00;27.60;;;17.07;;
912;SDS011;443;51.448;7.028;2023-02-05T05:57:29;25.60;;;14.60;;
912;SDS011;443;51.448;7.028;2023-02-05T05:59:55;34.47;;;17.80;;
912;SDS011;443;51.448;7.028;2023-02-05T06:02:22;28.27;;;16.43;;
912;SDS011;443;51.448;7.028;2023-02-05T06:04:49;27.83;;;15.73;;
912;SDS011;443;51.448;7.028;2023-02-05T06:07:16;34.00;;;18.00;;
912;SDS011;443;51.448;7.028;2023-02-05T06:09:43;27.43;;;18.10;;
912;SDS011;443;51.448;7.028;2023-02-05T06:12:09;29.63;;;18.07;;
912;SDS011;443;51.448;7.028;2023-02-05T06:14:37;33.97;;;16.43;;
912;SDS011;443;51.448;7.028;2023-02-05T06:17:04;30.57;;;18.10;;
912;SDS011;443;51.448;7.028;2023-02-05T06:19:31;27.50;;;16.17;;
912;SDS011;443;51.448;7.028;2023-02-05T06:21:58;28.37;;;17.87;;
912;SDS011;443;51.448;7.028;2023-02-05T06:24:25;27.67;;;19.23;;
912;SDS011;443;51.448;7.028;2023-02-05T06:26:52;29.73;;;17.30;;
912;SDS011;443;51.448;7.028;2023-02-05T06:29:18;25.00;;;16.87;;
912;SDS011;443;51.448;7.028;2023-02-05T06:31:47;30.93;;;15.80;;
912;SDS011;443;51.448;7.028;2023-02-05T06:34:13;39.73;;;17.73;;
912;SDS011;443;51.448;7.028;2023-02-05T06:36:40;30.57;;;17.60;;
912;SDS011;443;51.448;7.028;2023-02-05T06:39:07;27.93;;;15.33;;
912;SDS011;443;51.448;7.028;2023-02-05T06:41:34;26.60;;;14.90;;
912;SDS011;443;51.448;7.028;2023-02-05T06:44:00;26.30;;;16.50;;
912;SDS011;443;51.448;7.028;2023-02-05T06:46:28;34.20;;;17.40;;
912;SDS011;443;51.448;7.028;2023-02-05T06:48:56;24.80;;;14.70;;
912;SDS011;443;51.448;7.028;2023-02-05T06:51:23;28.80;;;17.00;;
912;SDS011;443;51.448;7.028;2023-02-05T06:53:50;27.03;;;15.67;;
912;SDS011;443;51.448;7.028;2023-02-05T06:56:19;29.00;;;17.87;;
912;SDS011;443;51.448;7.028;2023-02-05T06:58:46;28.07;;;15.63;;
912;SDS011;443;51.448;7.028;2023-02-05T07:01:12;26.97;;;16.80;;
912;SDS011;443;51.448;7.028;2023-02-05T07:03:39;25.80;;;17.33;;
912;SDS011;443;51.448;7.028;2023-02-05T07:06:07;32.60;;;17.73;;
912;SDS011;443;51.448;7.028;2023-02-05T07:08:35;28.80;;;17.43;;
912;SDS011;443;51.448;7.028;2023-02-05T07:11:02;28.47;;;17.00;;
912;SDS011;443;51.448;7.028;2023-02-05T07:13:29;24.93;;;15.27;;
912;SDS011;443;51.448;7.028;2023-02-05T07:15:55;26.30;;;14.33;;
912;SDS011;443;51.448;7.028;2023-02-05T07:18:22;23.90;;;14.60;;
912;SDS011;443;51.448;7.028;2023-02-05T07:20:49;21.63;;;14.10;;
912;SDS011;443;51.448;7.028;2023-02-05T07:23:17;21.47;;;14.33;;
912;SDS011;443;51.448;7.028;2023-02-05T07:25:44;19.03;;;13.67;;
912;SDS011;443;51.448;7.028;2023-02-05T07:28:11;21.77;;;13.63;;
912;SDS011;443;51.448;7.028;2023-02-05T07:30:38;24.73;;;16.83;;
912;SDS011;443;51.448;7.028;2023-02-05T07:33:05;28.17;;;14.93;;
912;SDS011;443;51.448;7.028;2023-02-05T07:35:32;20.90;;;13.90;;
912;SDS011;443;51.448;7.028;2023-02-05T07:38:02;21.70;;;14.33;;
912;SDS011;443;51.448;7.028;2023-02-05T07:40:30;25.30;;;15.77;;
912;SDS011;443;51.448;7.028;2023-02-05T07:42:57;28.03;;;15.13;;
912;SDS011;443;51.448;7.028;2023-02-05T07:45:23;21.87;;;14.30;;
912;SDS011;443;51.448;7.028;2023-02-05T07:47:50;20.73;;;13.30;;
912;SDS011;443;51.448;7.028;2023-02-05T07:50:17;19.00;;;12.60;;
912;SDS011;443;51.448;7.028;2023-02-05T07:52:44;15.80;;;11.27;;
912;SDS011;443;51.448;7.028;2023-02-05T07:55:11;15.23;;;9.53;;
912;SDS011;443;51.448;7.028;2023-02-05T07:57:39;12.93;;;9.30;;
912;SDS011;443;51.448;7.028;2023-02-05T08:00:07;11.90;;;8.73;;
912;SDS011;443;51.448;7.028;2023-02-05T08:02:35;13.60;;;9.17;;
912;SDS011;443;51.448;7.028;2023-02-05T08:05:01;15.90;;;10.33;;
912;SDS011;443;51.448;7.028;2023-02-05T08:07:28;16.27;;;10.20;;
912;SDS011;443;51.448;7.028;2023-02-05T08:09:55;13.80;;;9.40;;
912;SDS011;443;51.448;7.028;2023-02-05T08:12:22;13.50;;;10.10;;
912;SDS011;443;51.448;7.028;2023-02-05T08:14:51;12.30;;;9.13;;
912;SDS011;443;51.448;7.028;2023-02-05T08:17:17;15.77;;;8.60;;
912;SDS011;443;51.448;7.028;2023-02-05T08:19:44;9.80;;;8.10;;
912;SDS011;443;51.448;7.028;2023-02-05T08:22:11;14.47;;;9.20;;
912;SDS011;443;51.448;7.028;2023-02-05T08:24:38;12.47;;;9.30;;
912;SDS011;443;51.448;7.028;2023-02-05T08:27:04;13.20;;;8.10;;
912;SDS011;443;51.448;7.028;2023-02-05T08:29:31;12.40;;;7.37;;
912;SDS011;443;51.448;7.028;2023-02-05T08:31:59;7.43;;;5.33;;
912;SDS011;443;51.448;7.028;2023-02-05T08:34:27;9.93;;;6.27;;
912;SDS011;443;51.448;7.028;2023-02-05T08:36:53;5.90;;;4.90;;
912;SDS011;443;51.448;7.028;2023-02-05T08:39:21;4.67;;;3.20;;
912;SDS011;443;51.448;7.028;2023-02-05T08:41:50;4.37;;;3.00;;
912;SDS011;443;51.448;7.028;2023-02-05T08:44:16;2.40;;;1.63;;
912;SDS011;443;51.448;7.028;2023-02-05T08:46:43;10.53;;;1.83;;
912;SDS011;443;51.448;7.028;2023-02-05T08:49:11;3.30;;;1.97;;
912;SDS011;443;51.448;7.028;2023-02-05T08:51:38;3.73;;;1.67;;
912;SDS011;443;51.448;7.028;2023-02-05T08:54:05;4.20;;;1.40;;
912;SDS011;443;51.448;7.028;2023-02-05T08:56:36;2.97;;;0.93;;
912;SDS011;443;51.448;7.028;2023-02-05T08:59:04;1.73;;;0.80;;
912;SDS011;443;51.448;7.028;2023-02-05T09:01:32;1.70;;;0.80;;
912;SDS011;443;51.448;7.028;2023-02-05T09:04:01;1.00;;;0.60;;
912;SDS011;443;51.448;7.028;2023-02-05T09:06:29;0.93;;;0.70;;
912;SDS011;443;51.448;7.028;2023-02-05T09:08:56;2.30;;;1.10;;
912;SDS011;443;51.448;7.028;2023-02-05T09:11:23;0.93;;;0.60;;
912;SDS011;443;51.448;7.028;2023-02-05T09:13:51;3.30;;;0.93;;
912;SDS011;443;51.448;7.028;2023-02-05T09:16:18;1.77;;;0.70;;
912;SDS011;443;51.448;7.028;2023-02-05T09:18:44;1.20;;;0.50;;
912;SDS011;443;51.448;7.028;2023-02-05T09:21:12;2.20;;;0.70;;
912;SDS011;443;51.448;7.028;2023-02-05T09:23:40;2.70;;;0.73;;
912;SDS011;443;51.448;7.028;2023-02-05T09:26:07;3.43;;;0.77;;
912;SDS011;443;51.448;7.028;2023-02-05T09:28:34;0.80;;;0.60;;
912;SDS011;443;51.448;7.028;2023-02-05T09:31:03;3.60;;;1.33;;
912;SDS011;443;51.448;7.028;2023-02-05T09:33:32;0.90;;;0.50;;
912;SDS011;443;51.448;7.028;2023-02-05T09:36:03;1.33;;;0.63;;
912;SDS011;443;51.448;7.028;2023-02-05T09:38:31;5.03;;;0.70;;
912;SDS011;443;51.448;7.028;2023-02-05T09:41:00;2.73;;;0.60;;
912;SDS011;443;51.448;7.028;2023-02-05T09:43:37;4.00;;;0.87;;
912;SDS011;443;51.448;7.028;2023-02-05T09:46:11;1.33;;;1.13;;
912;SDS011;443;51.448;7.028;2023-02-05T09:48:48;0.90;;;0.50;;
912;SDS011;443;51.448;7.028;2023-02-05T09:51:21;1.93;;;0.70;;
912;SDS011;443;51.448;7.028;2023-02-05T09:53:54;1.70;;;0.63;;
912;SDS011;443;51.448;7.028;2023-02-05T09:56:24;1.83;;;0.80;;
912;SDS011;443;51.448;7.028;2023-02-05T09:58:53;1.33;;;1.03;;
912;SDS011;443;51.448;7.028;2023-02-05T10:01:23;1.87;;;0.90;;
912;SDS011;443;51.448;7.028;2023-02-05T10:04:00;3.97;;;1.00;;
912;SDS011;443;51.448;7.028;2023-02-05T10:06:33;4.70;;;1.60;;
912;SDS011;443;51.448;7.028;2023-02-05T10:09:08;4.27;;;0.83;;
912;SDS011;443;51.448;7.028;2023-02-05T10:11:47;3.63;;;0.97;;
912;SDS011;443;51.448;7.028;2023-02-05T10:14:18;3.40;;;1.00;;
912;SDS011;443;51.448;7.028;2023-02-05T10:16:55;6.97;;;1.20;;
912;SDS011;443;51.448;7.028;2023-02-05T10:22:39;2.03;;;1.00;;
912;SDS011;443;51.448;7.028;2023-02-05T10:28:12;1.53;;;0.90;;
912;SDS011;443;51.448;7.028;2023-02-05T10:31:16;2.77;;;0.80;;
912;SDS011;443;51.448;7.028;2023-02-05T10:33:53;8.10;;;1.73;;
912;SDS011;443;51.448;7.028;2023-02-05T10:36:29;5.53;;;1.23;;
912;SDS011;443;51.448;7.028;2023-02-05T10:38:56;2.73;;;1.17;;
912;SDS011;443;51.448;7.028;2023-02-05T10:41:26;1.67;;;0.60;;
912;SDS011;443;51.448;7.028;2023-02-05T10:44:00;6.40;;;1.13;;
912;SDS011;443;51.448;7.028;2023-02-05T10:46:34;6.90;;;1.20;;
912;SDS011;443;51.448;7.028;2023-02-05T10:49:03;4.90;;;1.23;;
912;SDS011;443;51.448;7.028;2023-02-05T10:51:37;4.70;;;1.70;;
912;SDS011;443;51.448;7.028;2023-02-05T10:54:09;2.70;;;1.57;;
912;SDS011;443;51.448;7.028;2023-02-05T10:56:43;6.27;;;1.27;;
912;SDS011;443;51.448;7.028;2023-02-05T10:59:13;2.40;;;0.70;;
912;SDS011;443;51.448;7.028;2023-02-05T11:01:46;2.20;;;1.23;;
912;SDS011;443;51.448;7.028;2023-02-05T11:04:15;2.77;;;0.90;;
912;SDS011;443;51.448;7.028;2023-02-05T11:06:46;2.73;;;0.83;;
912;SDS011;443;51.448;7.028;2023-02-05T11:09:31;6.03;;;1.40;;
912;SDS011;443;51.448;7.028;2023-02-05T11:11:59;4.80;;;0.90;;
912;SDS011;443;51.448;7.028;2023-02-05T11:14:31;0.80;;;0.40;;
912;SDS011;443;51.448;7.028;2023-02-05T11:17:03;3.40;;;1.27;;
912;SDS011;443;51.448;7.028;2023-02-05T11:19:35;3.27;;;1.20;;
912;SDS011;443;51.448;7.028;2023-02-05T11:22:03;2.93;;;1.00;;
912;SDS011;443;51.448;7.028;2023-02-05T11:24:31;4.33;;;1.43;;
912;SDS011;443;51.448;7.028;2023-02-05T11:27:20;2.33;;;1.07;;
912;SDS011;443;51.448;7.028;2023-02-05T11:29:53;1.20;;;0.87;;
912;SDS011;443;51.448;7.028;2023-02-05T11:32:21;2.33;;;0.80;;
912;SDS011;443;51.448;7.028;2023-02-05T11:35:11;8.90;;;1.63;;
912;SDS011;443;51.448;7.028;2023-02-05T11:37:44;2.60;;;1.90;;
912;SDS011;443;51.448;7.028;2023-02-05T11:42:58;6.37;;;1.87;;
912;SDS011;443;51.448;7.028;2023-02-05T11:45:29;3.13;;;1.10;;
912;SDS011;443;51.448;7.028;2023-02-05T11:47:59;1.43;;;1.07;;
912;SDS011;443;51.448;7.028;2023-02-05T11:50:28;4.40;;;1.03;;
912;SDS011;443;51.448;7.028;2023-02-05T11:53:04;3.70;;;0.90;;
912;SDS011;443;51.448;7.028;2023-02-05T11:55:34;2.40;;;0.60;;
912;SDS011;443;51.448;7.028;2023-02-05T11:58:02;3.27;;;1.63;;
912;SDS011;443;51.448;7.028;2023-02-05T12:00:31;1.50;;;0.70;;
912;SDS011;443;51.448;7.028;2023-02-05T12:03:04;6.23;;;1.70;;
912;SDS011;443;51.448;7.028;2023-02-05T12:05:33;1.90;;;0.90;;
912;SDS011;443;51.448;7.028;2023-02-05T12:08:06;1.80;;;0.90;;
912;SDS011;443;51.448;7.028;2023-02-05T12:10:40;1.43;;;0.80;;
912;SDS011;443;51.448;7.028;2023-02-05T12:13:16;2.20;;;1.20;;
912;SDS011;443;51.448;7.028;2023-02-05T12:15:53;1.30;;;0.80;;
912;SDS011;443;51.448;7.028;2023-02-05T12:18:29;1.97;;;1.03;;
912;SDS011;443;51.448;7.028;2023-02-05T12:21:09;2.57;;;1.00;;
912;SDS011;443;51.448;7.028;2023-02-05T12:26:39;1.93;;;1.20;;
912;SDS011;443;51.448;7.028;2023-02-05T12:29:29;2.70;;;1.27;;
912;SDS011;443;51.448;7.028;2023-02-05T12:32:12;2.50;;;1.07;;
912;SDS011;443;51.448;7.028;2023-02-05T12:34:58;4.10;;;1.17;;
912;SDS011;443;51.448;7.028;2023-02-05T12:37:40;2.60;;;1.13;;
912;SDS011;443;51.448;7.028;2023-02-05T12:40:34;3.50;;;1.23;;
912;SDS011;443;51.448;7.028;2023-02-05T12:43:10;4.67;;;1.67;;
912;SDS011;443;51.448;7.028;2023-02-05T12:45:46;3.33;;;2.10;;
912;SDS011;443;51.448;7.028;2023-02-05T12:48:27;1.87;;;1.37;;
912;SDS011;443;51.448;7.028;2023-02-05T12:51:09;1.80;;;1.23;;
912;SDS011;443;51.448;7.028;2023-02-05T12:53:56;2.23;;;1.00;;
912;SDS011;443;51.448;7.028;2023-02-05T12:56:41;1.30;;;1.00;;
912;SDS011;443;51.448;7.028;2023-02-05T12:59:28;4.70;;;0.87;;
912;SDS011;443;51.448;7.028;2023-02-05T13:02:02;2.70;;;1.70;;
912;SDS011;443;51.448;7.028;2023-02-05T13:04:35;3.37;;;2.37;;
912;SDS011;443;51.448;7.028;2023-02-05T13:07:06;3.07;;;1.70;;
912;SDS011;443;51.448;7.028;2023-02-05T13:09:39;3.93;;;1.60;;
912;SDS011;443;51.448;7.028;2023-02-05T13:12:11;6.70;;;2.00;;
912;SDS011;443;51.448;7.028;2023-02-05T13:14:42;2.43;;;1.90;;
912;SDS011;443;51.448;7.028;2023-02-05T13:17:16;4.80;;;1.90;;
912;SDS011;443;51.448;7.028;2023-02-05T13:19:48;5.40;;;2.60;;
912;SDS011;443;51.448;7.028;2023-02-05T13:22:19;4.93;;;2.70;;
912;SDS011;443;51.448;7.028;2023-02-05T13:25:02;2.67;;;2.30;;
912;SDS011;443;51.448;7.028;2023-02-05T13:27:57;6.50;;;2.13;;
912;SDS011;443;51.448;7.028;2023-02-05T13:30:47;5.43;;;2.67;;
912;SDS011;443;51.448;7.028;2023-02-05T13:33:19;5.33;;;2.00;;
912;SDS011;443;51.448;7.028;2023-02-05T13:35:50;8.23;;;2.17;;
912;SDS011;443;51.448;7.028;2023-02-05T13:38:40;2.50;;;1.57;;
912;SDS011;443;51.448;7.028;2023-02-05T13:41:29;3.47;;;1.33;;
912;SDS011;443;51.448;7.028;2023-02-05T13:44:12;3.63;;;1.63;;
912;SDS011;443;51.448;7.028;2023-02-05T13:47:01;3.40;;;1.83;;
912;SDS011;443;51.448;7.028;2023-02-05T13:55:39;5.10;;;1.53;;
912;SDS011;443;51.448;7.028;2023-02-05T13:58:20;3.33;;;1.17;;
912;SDS011;443;51.448;7.028;2023-02-05T14:00:53;3.80;;;1.33;;
912;SDS011;443;51.448;7.028;2023-02-05T14:03:33;4.63;;;1.13;;
912;SDS011;443;51.448;7.028;2023-02-05T14:06:10;1.63;;;0.70;;
912;SDS011;443;51.448;7.028;2023-02-05T14:08:41;4.47;;;1.23;;
912;SDS011;443;51.448;7.028;2023-02-05T14:11:08;2.80;;;1.17;;
912;SDS011;443;51.448;7.028;2023-02-05T14:13:36;4.10;;;1.30;;
912;SDS011;443;51.448;7.028;2023-02-05T14:19:02;6.77;;;1.70;;
912;SDS011;443;51.448;7.028;2023-02-05T14:24:42;8.37;;;2.00;;
912;SDS011;443;51.448;7.028;2023-02-05T14:27:19;6.70;;;1.30;;
912;SDS011;443;51.448;7.028;2023-02-05T14:33:01;3.93;;;1.43;;
912;SDS011;443;51.448;7.028;2023-02-05T14:35:49;5.10;;;1.67;;
912;SDS011;443;51.448;7.028;2023-02-05T14:38:21;3.27;;;1.43;;
912;SDS011;443;51.448;7.028;2023-02-05T14:41:02;4.23;;;1.30;;
912;SDS011;443;51.448;7.028;2023-02-05T14:43:35;8.23;;;1.60;;
912;SDS011;443;51.448;7.028;2023-02-05T14:46:05;4.50;;;1.23;;
912;SDS011;443;51.448;7.028;2023-02-05T14:48:45;1.97;;;1.23;;
912;SDS011;443;51.448;7.028;2023-02-05T14:51:19;4.27;;;1.13;;
912;SDS011;443;51.448;7.028;2023-02-05T14:53:52;5.40;;;2.37;;
912;SDS011;443;51.448;7.028;2023-02-05T14:56:25;8.07;;;1.23;;
912;SDS011;443;51.448;7.028;2023-02-05T14:58:59;6.70;;;1.10;;
912;SDS011;443;51.448;7.028;2023-02-05T15:01:44;2.23;;;0.90;;
912;SDS011;443;51.448;7.028;2023-02-05T15:04:27;4.90;;;1.10;;
912;SDS011;443;51.448;7.028;2023-02-05T15:07:06;4.37;;;1.40;;
912;SDS011;443;51.448;7.028;2023-02-05T15:09:38;8.13;;;2.37;;
912;SDS011;443;51.448;7.028;2023-02-05T15:12:25;5.33;;;1.20;;
912;SDS011;443;51.448;7.028;2023-02-05T15:14:58;2.70;;;1.27;;
912;SDS011;443;51.448;7.028;2023-02-05T15:17:51;2.00;;;0.90;;
912;SDS011;443;51.448;7.028;2023-02-05T15:20:24;11.27;;;2.23;;
912;SDS011;443;51.448;7.028;2023-02-05T15:22:56;8.50;;;1.90;;
912;SDS011;443;51.448;7.028;2023-02-05T15:25:30;6.47;;;1.77;;
912;SDS011;443;51.448;7.028;2023-02-05T15:28:04;2.90;;;1.60;;
912;SDS011;443;51.448;7.028;2023-02-05T15:30:42;5.60;;;1.40;;
912;SDS011;443;51.448;7.028;2023-02-05T15:33:15;11.20;;;1.67;;
912;SDS011;443;51.448;7.028;2023-02-05T15:35:47;6.97;;;2.37;;
912;SDS011;443;51.448;7.028;2023-02-05T15:38:22;7.70;;;2.20;;
912;SDS011;443;51.448;7.028;2023-02-05T15:40:54;6.00;;;1.80;;
912;SDS011;443;51.448;7.028;2023-02-05T15:43:24;8.23;;;2.07;;
912;SDS011;443;51.448;7.028;2023-02-05T15:45:56;3.00;;;1.30;;
912;SDS011;443;51.448;7.028;2023-02-05T15:48:26;7.60;;;1.80;;
912;SDS011;443;51.448;7.028;2023-02-05T15:50:56;7.90;;;1.80;;
912;SDS011;443;51.448;7.028;2023-02-05T15:53:29;3.83;;;1.93;;
912;SDS011;443;51.448;7.028;2023-02-05T15:56:03;4.63;;;1.73;;
912;SDS011;443;51.448;7.028;2023-02-05T15:58:34;5.77;;;2.03;;
912;SDS011;443;51.448;7.028;2023-02-05T16:01:02;11.10;;;2.80;;
912;SDS011;443;51.448;7.028;2023-02-05T16:03:29;6.43;;;1.90;;
912;SDS011;443;51.448;7.028;2023-02-05T16:05:58;5.23;;;2.10;;
912;SDS011;443;51.448;7.028;2023-02-05T16:08:26;4.73;;;1.97;;
912;SDS011;443;51.448;7.028;2023-02-05T16:10:54;10.10;;;2.57;;
912;SDS011;443;51.448;7.028;2023-02-05T16:13:23;5.30;;;1.70;;
912;SDS011;443;51.448;7.028;2023-02-05T16:15:54;4.57;;;2.00;;
912;SDS011;443;51.448;7.028;2023-02-05T16:18:30;7.90;;;2.27;;
912;SDS011;443;51.448;7.028;2023-02-05T16:21:03;9.17;;;2.97;;
912;SDS011;443;51.448;7.028;2023-02-05T16:23:32;10.83;;;2.60;;